Time;durP1;ratioP1;P1;durP2;ratioP2;P2;SDS_P1;SDS_P2;PMS_P1;PMS_P2;Temp;Humidity;BMP_temperature;BMP_pressure;BME280_temperature;BME280_humidity;BME280_pressure;Samples;Min_cycle;Max_cycle;Signal;HPM_P1;HPM_P2
2022/05/07 00:01:58;;;;;;;;;;;;;;;8.77;38.39;96195.41;5020273;28;20129;-59
2022/05/07 00:04:23;;;;;;;;;;;;;;;8.77;37.79;96205.19;5019228;28;20371;-58
2022/05/07 00:06:49;;;;;;;;;;;;;;;8.69;37.91;96198.81;5020385;28;19995;-57
2022/05/07 00:09:14;;;;;;;;;;;;;;;8.67;38.25;96205.28;5012016;28;20024;-58
2022/05/07 00:11:39;;;;;;;;;;;;;;;8.71;38.43;96205.78;5004004;28;19989;-57
2022/05/07 00:14:04;;;;;;;;;;;;;;;8.75;37.79;96199.19;5002093;28;19977;-58
2022/05/07 00:19:13;;;;;;;;;;;;;;;8.62;38.02;96205.72;5003537;28;20036;-57
2022/05/07 00:21:39;;;;;;;;;;;;;;;8.70;37.71;96199.63;5000355;28;20212;-59
2022/05/07 00:24:04;;;;;;;;;;;;;;;8.66;37.56;96192.97;5005310;28;19993;-57
2022/05/07 00:26:29;;;;;;;;;;;;;;;8.57;37.94;96192.91;5020232;28;19968;-58
2022/05/07 00:28:55;;;;;;;;;;;;;;;8.55;37.80;96194.03;5008386;28;20001;-59
2022/05/07 00:31:20;;;;;;;;;;;;;;;8.51;38.13;96196.16;5016968;28;19998;-57
2022/05/07 00:33:45;;;;;;;;;;;;;;;8.50;38.08;96194.47;5020072;28;19969;-57
2022/05/07 00:36:11;;;;;;;;;;;;;;;8.49;38.21;96192.81;5019558;28;20001;-56
2022/05/07 00:38:36;;;;;;;;;;;;;;;8.40;38.90;96191.06;5020958;28;19985;-57
2022/05/07 00:41:01;;;;;;;;;;;;;;;8.43;38.00;96188.09;5023421;28;19992;-58
2022/05/07 00:43:33;;;;;;;;;;;;;;;8.36;38.07;96187.06;5017069;28;20410;-58
2022/05/07 00:45:58;;;;;;;;;;;;;;;8.33;38.49;96182.84;5021840;28;20350;-57
2022/05/07 00:48:25;;;;;;;;;;;;;;;8.37;37.90;96178.91;5023672;28;19993;-58
2022/05/07 00:53:34;;;;;;;;;;;;;;;8.25;37.71;96180.13;5013345;28;20446;-57
2022/05/07 00:56:00;;;;;;;;;;;;;;;8.17;37.82;96179.03;5018261;28;19993;-59
2022/05/07 00:58:25;;;;;;;;;;;;;;;8.17;37.79;96181.69;5015901;28;19992;-58
2022/05/07 01:00:53;;;;;;;;;;;;;;;8.15;37.41;96181.03;5017464;28;20083;-57
2022/05/07 01:03:19;;;;;;;;;;;;;;;8.10;38.12;96185.97;5021447;28;20210;-58
2022/05/07 01:05:44;;;;;;;;;;;;;;;8.10;37.61;96174.50;5023388;28;20167;-59
2022/05/07 01:08:10;;;;;;;;;;;;;;;8.07;38.22;96177.44;5019977;28;20071;-58
2022/05/07 01:10:36;;;;;;;;;;;;;;;8.04;38.29;96179.44;5023547;28;19975;-58
2022/05/07 01:13:01;;;;;;;;;;;;;;;7.94;38.53;96180.44;5015771;28;20437;-58
2022/05/07 01:15:26;;;;;;;;;;;;;;;7.86;39.10;96175.88;5015918;28;20660;-58
2022/05/07 01:17:51;;;;;;;;;;;;;;;7.84;38.70;96177.84;5018669;28;20456;-58
2022/05/07 01:20:17;;;;;;;;;;;;;;;7.87;38.64;96173.09;5022987;28;20063;-59
2022/05/07 01:22:43;;;;;;;;;;;;;;;7.87;38.54;96178.38;5019698;28;19972;-58
2022/05/07 01:25:08;;;;;;;;;;;;;;;7.90;38.19;96171.97;5012609;28;20037;-61
2022/05/07 01:27:33;;;;;;;;;;;;;;;7.93;38.32;96171.66;5015253;28;19999;-59
2022/05/07 01:29:58;;;;;;;;;;;;;;;7.96;38.40;96166.03;5020926;28;20427;-60
2022/05/07 01:32:24;;;;;;;;;;;;;;;7.95;38.13;96167.03;5022421;28;20398;-59
2022/05/07 01:34:51;;;;;;;;;;;;;;;7.92;38.47;96164.66;5020786;28;19978;-61
2022/05/07 01:37:17;;;;;;;;;;;;;;;7.88;38.36;96158.84;5020804;28;19993;-60
2022/05/07 01:39:42;;;;;;;;;;;;;;;7.81;38.79;96156.91;5015234;28;20475;-61
2022/05/07 01:42:07;;;;;;;;;;;;;;;7.83;38.50;96160.25;5022775;28;20452;-61
2022/05/07 01:44:32;;;;;;;;;;;;;;;7.78;38.72;96158.91;5010277;28;20020;-60
2022/05/07 01:49:52;;;;;;;;;;;;;;;7.73;38.45;96160.28;4983879;28;19990;-60
2022/05/07 01:52:17;;;;;;;;;;;;;;;7.63;38.47;96155.03;5021244;28;20000;-60
2022/05/07 01:54:43;;;;;;;;;;;;;;;7.66;38.67;96155.56;5010088;28;20073;-61
2022/05/07 01:57:08;;;;;;;;;;;;;;;7.61;38.67;96149.88;5021092;28;20079;-61
2022/05/07 01:59:34;;;;;;;;;;;;;;;7.66;38.61;96150.25;5011037;28;20678;-62
2022/05/07 02:01:59;;;;;;;;;;;;;;;7.62;38.94;96148.88;5018609;28;20290;-62
2022/05/07 02:04:24;;;;;;;;;;;;;;;7.68;38.83;96152.75;5008776;28;20297;-61
2022/05/07 02:06:49;;;;;;;;;;;;;;;7.64;38.75;96149.59;5021981;28;19974;-61
2022/05/07 02:09:15;;;;;;;;;;;;;;;7.63;39.06;96155.88;5017896;28;20097;-60
2022/05/07 02:11:40;;;;;;;;;;;;;;;7.61;38.96;96146.38;5021248;28;20383;-60
2022/05/07 02:14:05;;;;;;;;;;;;;;;7.64;38.93;96141.63;5008730;28;19984;-60
2022/05/07 02:16:31;;;;;;;;;;;;;;;7.64;39.06;96146.09;5021038;28;20000;-61
2022/05/07 02:18:56;;;;;;;;;;;;;;;7.70;38.50;96144.66;5017126;28;19986;-60
2022/05/07 02:21:21;;;;;;;;;;;;;;;7.64;38.82;96146.94;5021957;28;20004;-61
2022/05/07 02:23:47;;;;;;;;;;;;;;;7.59;38.89;96143.91;5008970;28;20006;-62
2022/05/07 02:26:12;;;;;;;;;;;;;;;7.54;39.24;96149.63;5019728;28;20039;-62
2022/05/07 02:28:37;;;;;;;;;;;;;;;7.57;39.04;96148.50;5018655;28;19985;-61
2022/05/07 02:31:02;;;;;;;;;;;;;;;7.53;39.39;96145.31;5021679;28;20001;-60
2022/05/07 02:33:28;;;;;;;;;;;;;;;7.56;39.21;96143.34;5012720;28;20020;-60
2022/05/07 02:35:53;;;;;;;;;;;;;;;7.57;38.90;96137.03;5017062;28;20522;-61
2022/05/07 02:38:18;;;;;;;;;;;;;;;7.54;39.16;96141.69;5014947;28;20036;-60
2022/05/07 02:43:27;;;;;;;;;;;;;;;7.49;39.17;96138.63;5013585;28;20209;-62
2022/05/07 02:45:53;;;;;;;;;;;;;;;7.43;39.58;96133.91;5015698;28;19977;-60
2022/05/07 02:48:18;;;;;;;;;;;;;;;7.44;39.07;96142.69;5015361;28;19996;-61
2022/05/07 02:50:43;;;;;;;;;;;;;;;7.48;39.01;96141.44;5014075;28;19976;-60
2022/05/07 02:53:08;;;;;;;;;;;;;;;7.47;39.09;96143.22;5016768;28;20011;-61
2022/05/07 02:55:34;;;;;;;;;;;;;;;7.44;39.13;96142.69;5011955;28;20035;-61
2022/05/07 02:57:59;;;;;;;;;;;;;;;7.41;38.90;96141.16;5019270;28;20454;-61
2022/05/07 03:00:24;;;;;;;;;;;;;;;7.33;39.49;96149.00;5020482;28;20001;-61
2022/05/07 03:02:49;;;;;;;;;;;;;;;7.32;39.30;96144.69;5020810;28;20442;-61
2022/05/07 03:05:15;;;;;;;;;;;;;;;7.34;39.14;96151.50;5008684;28;20654;-61
2022/05/07 03:07:40;;;;;;;;;;;;;;;7.38;39.08;96149.41;5019728;28;20025;-62
2022/05/07 03:10:05;;;;;;;;;;;;;;;7.33;39.16;96149.00;5007692;28;19982;-61
2022/05/07 03:12:30;;;;;;;;;;;;;;;7.26;39.19;96149.59;5020787;28;20016;-61
2022/05/07 03:14:56;;;;;;;;;;;;;;;7.24;38.80;96148.88;5007673;28;20012;-61
2022/05/07 03:17:23;;;;;;;;;;;;;;;7.21;39.18;96145.69;5020542;28;20008;-60
2022/05/07 03:19:48;;;;;;;;;;;;;;;7.19;39.42;96151.13;5007454;28;20434;-61
2022/05/07 03:22:13;;;;;;;;;;;;;;;7.19;39.06;96142.34;5021077;28;19977;-61
2022/05/07 03:24:40;;;;;;;;;;;;;;;7.15;39.07;96145.28;5007867;28;20021;-62
2022/05/07 03:27:05;;;;;;;;;;;;;;;7.17;39.04;96139.84;5016655;28;20465;-60
2022/05/07 03:29:31;;;;;;;;;;;;;;;7.19;38.94;96148.47;5017025;28;20021;-61
2022/05/07 03:31:56;;;;;;;;;;;;;;;7.11;39.52;96148.38;5012500;28;20006;-61
2022/05/07 03:34:21;;;;;;;;;;;;;;;7.10;38.95;96141.38;5015171;28;19969;-60
2022/05/07 03:36:47;;;;;;;;;;;;;;;7.04;39.65;96144.63;5014327;28;20035;-60
2022/05/07 03:39:13;;;;;;;;;;;;;;;7.04;39.40;96140.13;5002807;28;20041;-61
2022/05/07 03:41:38;;;;;;;;;;;;;;;7.07;39.46;96141.69;5015625;28;20069;-62
2022/05/07 03:44:03;;;;;;;;;;;;;;;7.08;39.34;96138.06;5011260;28;20092;-61
2022/05/07 03:46:29;;;;;;;;;;;;;;;7.08;39.33;96140.72;5018108;28;20047;-59
2022/05/07 03:48:54;;;;;;;;;;;;;;;7.03;39.42;96143.78;5009694;28;20406;-58
2022/05/07 03:51:20;;;;;;;;;;;;;;;7.07;39.25;96139.03;5019597;28;19983;-59
2022/05/07 03:53:45;;;;;;;;;;;;;;;7.11;39.12;96140.44;5007961;28;20474;-60
2022/05/07 03:56:10;;;;;;;;;;;;;;;7.11;39.29;96135.13;5020017;28;19998;-58
2022/05/07 03:58:36;;;;;;;;;;;;;;;7.13;39.25;96135.81;5007398;28;20390;-59
2022/05/07 04:01:01;;;;;;;;;;;;;;;7.17;39.09;96136.38;5019126;28;20197;-62
2022/05/07 04:03:27;;;;;;;;;;;;;;;7.14;39.30;96140.13;5006629;28;19966;-60
2022/05/07 04:05:52;;;;;;;;;;;;;;;7.17;39.23;96139.84;5019391;28;19974;-59
2022/05/07 04:08:17;;;;;;;;;;;;;;;7.19;38.93;96148.47;5001678;28;19985;-59
2022/05/07 04:10:43;;;;;;;;;;;;;;;7.18;39.29;96141.53;5014466;28;20634;-61
2022/05/07 04:13:09;;;;;;;;;;;;;;;7.24;39.07;96140.94;5009190;28;19993;-60
2022/05/07 04:15:35;;;;;;;;;;;;;;;7.27;39.08;96142.44;5024091;28;19994;-61
2022/05/07 04:18:00;;;;;;;;;;;;;;;7.31;38.94;96148.31;5011206;28;20451;-60
2022/05/07 04:20:25;;;;;;;;;;;;;;;7.34;39.00;96142.72;5023885;28;20012;-59
2022/05/07 04:22:51;;;;;;;;;;;;;;;7.39;39.10;96145.78;5010822;28;20070;-61
2022/05/07 04:25:16;;;;;;;;;;;;;;;7.43;38.95;96146.31;5023892;28;20471;-58
2022/05/07 04:27:41;;;;;;;;;;;;;;;7.48;39.09;96147.53;5016967;28;20411;-60
2022/05/07 04:30:07;;;;;;;;;;;;;;;7.59;38.82;96143.91;5024278;28;19985;-59
2022/05/07 04:32:32;;;;;;;;;;;;;;;7.66;38.71;96144.13;5012179;28;20001;-61
2022/05/07 04:34:57;;;;;;;;;;;;;;;7.68;38.79;96142.16;5022421;28;19969;-60
2022/05/07 04:37:23;;;;;;;;;;;;;;;7.79;38.40;96144.66;5013895;28;19990;-60
2022/05/07 04:39:48;;;;;;;;;;;;;;;7.83;38.52;96144.34;5022647;28;20000;-61
2022/05/07 04:42:13;;;;;;;;;;;;;;;7.90;38.74;96142.78;5015142;28;19978;-62
2022/05/07 04:44:39;;;;;;;;;;;;;;;7.95;39.04;96143.16;5018353;28;19993;-60
2022/05/07 04:47:05;;;;;;;;;;;;;;;8.08;38.44;96142.81;5020663;28;20001;-62
2022/05/07 04:49:30;;;;;;;;;;;;;;;8.16;38.91;96144.75;5017002;28;19990;-60
2022/05/07 04:51:55;;;;;;;;;;;;;;;8.29;38.66;96154.97;5019475;28;20004;-61
2022/05/07 04:54:21;;;;;;;;;;;;;;;8.36;38.89;96145.41;5023932;28;20485;-61
2022/05/07 04:56:46;;;;;;;;;;;;;;;8.51;38.39;96148.41;5020708;28;20000;-60
2022/05/07 04:59:12;;;;;;;;;;;;;;;8.62;38.89;96152.63;5012110;28;20462;-60
2022/05/07 05:01:37;;;;;;;;;;;;;;;8.71;38.95;96147.41;5022530;28;19984;-59
2022/05/07 05:04:03;;;;;;;;;;;;;;;8.79;38.77;96148.31;5010571;28;20493;-59
2022/05/07 05:06:28;;;;;;;;;;;;;;;8.99;38.25;96157.94;5023127;28;20326;-60
2022/05/07 05:08:53;;;;;;;;;;;;;;;9.17;38.00;96160.53;5016169;28;19994;-60
2022/05/07 05:11:18;;;;;;;;;;;;;;;9.32;37.81;96153.66;5022692;28;19971;-61
2022/05/07 05:13:44;;;;;;;;;;;;;;;9.54;37.24;96156.78;5010088;28;20079;-61
2022/05/07 05:16:09;;;;;;;;;;;;;;;9.72;37.36;96154.03;5015929;28;20038;-61
2022/05/07 05:18:34;;;;;;;;;;;;;;;9.90;37.11;96153.13;5017124;28;19985;-57
2022/05/07 05:20:59;;;;;;;;;;;;;;;10.03;37.38;96154.50;5017623;28;20055;-61
2022/05/07 05:23:25;;;;;;;;;;;;;;;10.16;37.35;96152.22;5013967;28;20031;-59
2022/05/07 05:25:50;;;;;;;;;;;;;;;10.31;37.49;96160.44;5012918;28;20435;-60
2022/05/07 05:28:16;;;;;;;;;;;;;;;10.46;37.59;96152.63;5015307;28;20101;-58
2022/05/07 05:30:42;;;;;;;;;;;;;;;10.64;37.94;96164.13;5014271;28;20481;-61
2022/05/07 05:33:08;;;;;;;;;;;;;;;10.76;38.11;96162.81;5018131;28;20127;-60
2022/05/07 05:35:33;;;;;;;;;;;;;;;10.95;38.08;96160.81;5015658;28;19996;-59
2022/05/07 05:37:58;;;;;;;;;;;;;;;11.12;38.38;96167.00;5009144;28;20379;-61
2022/05/07 05:40:24;;;;;;;;;;;;;;;11.33;38.27;96160.31;5017120;28;19989;-59
2022/05/07 05:42:49;;;;;;;;;;;;;;;11.52;38.35;96165.25;5013046;28;19967;-62
2022/05/07 05:45:14;;;;;;;;;;;;;;;11.71;38.29;96168.56;5020629;28;19986;-60
2022/05/07 05:47:39;;;;;;;;;;;;;;;11.94;38.15;96173.16;5020935;28;20053;-60
2022/05/07 05:50:05;;;;;;;;;;;;;;;12.19;38.39;96166.88;5013694;28;20416;-60
2022/05/07 05:52:31;;;;;;;;;;;;;;;12.42;38.25;96167.72;5022266;28;20017;-61
2022/05/07 05:54:56;;;;;;;;;;;;;;;12.65;38.16;96166.13;5010067;28;19977;-60
2022/05/07 05:57:22;;;;;;;;;;;;;;;12.89;37.79;96166.94;5017265;28;19990;-58
2022/05/07 05:59:47;;;;;;;;;;;;;;;13.11;37.65;96167.94;5010864;28;20054;-60
2022/05/07 06:02:14;;;;;;;;;;;;;;;13.35;37.48;96166.06;5019671;28;19964;-60
2022/05/07 06:04:39;;;;;;;;;;;;;;;13.60;37.44;96167.66;5015556;28;20071;-61
2022/05/07 06:07:05;;;;;;;;;;;;;;;13.86;37.39;96167.19;5022248;28;19982;-61
2022/05/07 06:09:30;;;;;;;;;;;;;;;14.13;37.06;96162.19;5008083;28;20091;-60
2022/05/07 06:11:57;;;;;;;;;;;;;;;14.40;36.80;96161.66;5015965;28;20072;-62
2022/05/07 06:14:22;;;;;;;;;;;;;;;14.65;35.85;96153.28;5016585;28;20467;-61
2022/05/07 06:16:47;;;;;;;;;;;;;;;14.92;34.27;96164.28;5014405;28;19990;-61
2022/05/07 06:19:12;;;;;;;;;;;;;;;15.13;33.87;96165.28;5017722;28;20267;-58
2022/05/07 06:21:38;;;;;;;;;;;;;;;15.35;30.95;96166.06;5011619;28;20066;-63
2022/05/07 06:27:28;;;;;;;;;;;;;;;15.65;29.70;96163.22;5009469;28;20217;-62
2022/05/07 06:29:32;;;;;;;;;;;;;;;16.04;27.42;96166.28;5017815;28;20378;-61
2022/05/07 06:31:58;;;;;;;;;;;;;;;16.45;26.66;96174.56;5018339;28;20355;-59
2022/05/07 06:34:24;;;;;;;;;;;;;;;16.76;26.26;96173.97;5010943;28;20457;-62
2022/05/07 06:36:49;;;;;;;;;;;;;;;17.00;26.28;96173.63;5012343;28;20433;-62
2022/05/07 06:39:16;;;;;;;;;;;;;;;17.06;26.94;96174.66;5006159;28;19969;-62
2022/05/07 06:41:41;;;;;;;;;;;;;;;16.92;26.20;96171.13;5018562;28;20012;-62
2022/05/07 06:44:08;;;;;;;;;;;;;;;16.21;27.10;96182.91;5010319;28;20285;-61
2022/05/07 06:46:33;;;;;;;;;;;;;;;15.72;28.73;96185.56;5020902;28;19959;-62
2022/05/07 06:48:58;;;;;;;;;;;;;;;14.97;30.40;96185.97;5021333;28;19980;-63
2022/05/07 06:51:24;;;;;;;;;;;;;;;15.54;28.06;96188.69;5020496;28;19956;-67
2022/05/07 06:53:49;;;;;;;;;;;;;;;16.49;26.56;96189.25;5021238;28;20026;-62
2022/05/07 06:56:14;;;;;;;;;;;;;;;17.12;26.47;96177.38;5020622;28;19996;-60
2022/05/07 06:58:41;;;;;;;;;;;;;;;17.47;24.80;96181.69;5010405;28;20025;-61
2022/05/07 07:01:07;;;;;;;;;;;;;;;17.64;23.38;96173.22;5013900;28;20073;-62
2022/05/07 07:03:32;;;;;;;;;;;;;;;17.97;22.97;96183.09;5019788;28;19999;-63
2022/05/07 07:05:57;;;;;;;;;;;;;;;17.38;22.59;96177.56;5016323;28;19988;-62
2022/05/07 07:08:24;;;;;;;;;;;;;;;17.81;23.45;96178.94;5008502;28;19980;-63
2022/05/07 07:10:49;;;;;;;;;;;;;;;17.36;22.59;96187.72;5014498;28;20073;-63
2022/05/07 07:13:16;;;;;;;;;;;;;;;16.84;24.80;96185.59;5009311;28;20096;-63
2022/05/07 07:15:41;;;;;;;;;;;;;;;16.51;23.54;96182.63;5015539;28;20521;-62
2022/05/07 07:18:09;;;;;;;;;;;;;;;15.85;24.38;96181.28;5016466;28;19960;-62
2022/05/07 07:20:36;;;;;;;;;;;;;;;17.06;24.07;96180.03;5015655;28;20415;-62
2022/05/07 07:23:02;;;;;;;;;;;;;;;17.49;24.25;96179.63;5016059;28;20388;-64
2022/05/07 07:25:27;;;;;;;;;;;;;;;17.28;23.91;96178.00;5016101;28;20433;-61
2022/05/07 07:27:53;;;;;;;;;;;;;;;17.73;23.45;96181.88;5010524;28;19999;-62
2022/05/07 07:30:18;;;;;;;;;;;;;;;17.91;23.24;96181.22;5008639;28;20542;-63
2022/05/07 07:32:43;;;;;;;;;;;;;;;18.28;22.50;96184.22;5014590;28;20409;-63
2022/05/07 07:35:08;;;;;;;;;;;;;;;17.14;23.50;96188.75;5015571;28;20412;-64
2022/05/07 07:37:34;;;;;;;;;;;;;;;16.13;23.58;96186.59;5014469;28;19985;-60
2022/05/07 07:40:00;;;;;;;;;;;;;;;17.48;22.40;96183.38;5015452;28;20404;-62
2022/05/07 07:42:25;;;;;;;;;;;;;;;18.19;22.11;96185.50;5016422;28;19968;-62
2022/05/07 07:47:56;;;;;;;;;;;;;;;18.98;20.47;96179.09;5003290;28;20430;-61
2022/05/07 07:50:20;;;;;;;;;;;;;;;18.40;24.54;96186.25;5015550;28;20104;-62
2022/05/07 07:52:45;;;;;;;;;;;;;;;18.46;24.84;96196.16;5010782;28;20168;-63
2022/05/07 07:55:10;;;;;;;;;;;;;;;18.60;23.46;96199.66;5016103;28;19993;-62
2022/05/07 07:57:35;;;;;;;;;;;;;;;18.47;23.51;96194.28;5016469;28;19947;-62
2022/05/07 08:00:00;;;;;;;;;;;;;;;18.05;25.99;96198.19;5015304;28;20502;-63
2022/05/07 08:02:26;;;;;;;;;;;;;;;16.88;25.96;96193.03;5015528;28;20493;-62
2022/05/07 08:04:54;;;;;;;;;;;;;;;17.41;25.27;96193.31;5008414;28;20499;-61
2022/05/07 08:12:47;;;;;;;;;;;;;;;18.25;24.35;96192.72;5016331;28;20091;-62
2022/05/07 08:15:13;;;;;;;;;;;;;;;17.19;25.32;96189.97;5010900;28;20068;-61
2022/05/07 08:17:38;;;;;;;;;;;;;;;18.94;24.13;96194.88;5016443;28;20450;-61
2022/05/07 08:20:08;;;;;;;;;;;;;;;19.71;22.41;96186.81;5015027;28;19977;-62
2022/05/07 08:22:33;;;;;;;;;;;;;;;18.50;23.84;96196.56;5015894;28;19947;-62
2022/05/07 08:25:01;;;;;;;;;;;;;;;19.40;22.30;96197.47;5012928;28;20008;-61
2022/05/07 08:27:26;;;;;;;;;;;;;;;19.37;22.25;96197.13;5013070;28;20472;-63
2022/05/07 08:29:54;;;;;;;;;;;;;;;19.78;21.65;96197.56;5013006;28;20203;-62
2022/05/07 08:32:19;;;;;;;;;;;;;;;20.58;20.40;96193.13;4999125;28;19985;-62
2022/05/07 08:34:45;;;;;;;;;;;;;;;20.69;20.89;96196.97;5014317;28;20147;-62
2022/05/07 08:37:10;;;;;;;;;;;;;;;20.92;20.01;96190.00;5015105;28;20266;-63
2022/05/07 08:39:36;;;;;;;;;;;;;;;21.28;20.69;96197.38;5003840;28;19998;-62
2022/05/07 08:42:01;;;;;;;;;;;;;;;21.77;20.44;96191.75;5015338;28;20017;-64
2022/05/07 08:44:26;;;;;;;;;;;;;;;21.72;20.54;96186.22;5015438;28;20056;-64
2022/05/07 08:46:52;;;;;;;;;;;;;;;21.24;22.16;96189.69;5015380;28;19956;-62
2022/05/07 08:49:17;;;;;;;;;;;;;;;21.08;21.03;96187.66;5014896;28;20069;-63
2022/05/07 08:51:42;;;;;;;;;;;;;;;20.45;23.24;96196.84;5015801;28;20237;-62
2022/05/07 08:54:10;;;;;;;;;;;;;;;21.06;20.22;96190.59;5014196;28;19961;-61
2022/05/07 08:56:35;;;;;;;;;;;;;;;19.98;22.86;96194.66;5013862;28;19972;-63
2022/05/07 08:59:00;;;;;;;;;;;;;;;19.45;23.79;96200.34;5015802;28;20047;-62
2022/05/07 09:01:25;;;;;;;;;;;;;;;19.22;21.90;96198.22;5019128;28;20014;-63
2022/05/07 09:03:51;;;;;;;;;;;;;;;18.48;22.77;96207.56;5019034;28;19973;-64
2022/05/07 09:06:19;;;;;;;;;;;;;;;18.24;23.28;96203.72;5019508;28;20008;-63
2022/05/07 09:08:45;;;;;;;;;;;;;;;17.72;23.28;96202.59;5014120;28;20021;-63
2022/05/07 09:11:10;;;;;;;;;;;;;;;17.92;24.12;96201.75;5017895;28;20003;-62
2022/05/07 09:13:35;;;;;;;;;;;;;;;17.79;23.21;96195.31;5019130;28;20587;-62
2022/05/07 09:16:01;;;;;;;;;;;;;;;17.85;23.33;96193.66;5019068;28;20490;-62
2022/05/07 09:18:27;;;;;;;;;;;;;;;16.72;27.74;96198.78;5018785;28;20122;-61
2022/05/07 09:21:26;;;;;;;;;;;;;;;17.74;23.95;96197.81;5018189;28;19975;-61
2022/05/07 09:24:01;;;;;;;;;;;;;;;17.62;24.76;96197.66;5017336;28;19974;-61
2022/05/07 09:26:27;;;;;;;;;;;;;;;18.31;23.20;96197.28;5018027;28;19952;-62
2022/05/07 09:28:52;;;;;;;;;;;;;;;18.42;23.52;96192.25;5015154;28;19997;-62
2022/05/07 09:31:21;;;;;;;;;;;;;;;19.17;21.87;96184.56;5012810;28;20515;-66
2022/05/07 09:33:46;;;;;;;;;;;;;;;20.07;22.16;96179.81;5018770;28;19948;-62
2022/05/07 09:36:12;;;;;;;;;;;;;;;20.25;22.28;96177.34;5013942;28;19970;-63
2022/05/07 09:38:38;;;;;;;;;;;;;;;20.36;20.74;96185.50;5018366;28;20361;-63
2022/05/07 09:41:04;;;;;;;;;;;;;;;19.66;22.72;96178.56;5016738;28;20544;-62
2022/05/07 09:43:30;;;;;;;;;;;;;;;20.79;19.98;96187.47;5018260;28;20223;-61
2022/05/07 09:45:56;;;;;;;;;;;;;;;21.40;20.29;96179.25;5017112;28;19976;-61
2022/05/07 09:48:21;;;;;;;;;;;;;;;22.19;18.52;96188.06;5018019;28;19992;-63
2022/05/07 09:50:46;;;;;;;;;;;;;;;21.56;18.94;96188.59;5015047;28;19976;-63
2022/05/07 09:58:40;;;;;;;;;;;;;;;21.25;20.54;96185.13;5012839;28;19959;-63
2022/05/07 10:01:21;;;;;;;;;;;;;;;20.80;21.12;96184.53;5024332;28;19972;-63
2022/05/07 10:04:04;;;;;;;;;;;;;;;20.16;20.54;96183.03;5014746;28;20449;-62
2022/05/07 10:06:29;;;;;;;;;;;;;;;20.42;22.34;96180.22;5018384;28;19939;-63
2022/05/07 10:09:13;;;;;;;;;;;;;;;19.08;22.83;96178.63;5014001;28;19975;-63
2022/05/07 10:11:39;;;;;;;;;;;;;;;18.61;23.57;96177.06;5017302;28;19967;-63
2022/05/07 10:14:04;;;;;;;;;;;;;;;19.00;21.96;96178.88;5017986;28;20268;-64
2022/05/07 10:16:29;;;;;;;;;;;;;;;18.65;24.04;96188.22;5009872;28;20011;-63
2022/05/07 10:18:55;;;;;;;;;;;;;;;19.24;21.34;96173.72;5010765;28;20439;-63
2022/05/07 10:21:21;;;;;;;;;;;;;;;19.62;21.49;96171.94;5010113;28;20042;-63
2022/05/07 10:23:49;;;;;;;;;;;;;;;20.06;20.34;96167.34;5017632;28;20000;-64
2022/05/07 10:26:15;;;;;;;;;;;;;;;20.48;19.95;96176.63;5018499;28;20144;-63
2022/05/07 10:28:41;;;;;;;;;;;;;;;21.07;20.04;96164.38;5016633;28;19952;-63
2022/05/07 10:31:14;;;;;;;;;;;;;;;21.40;19.55;96167.59;5017360;28;20023;-62
2022/05/07 10:33:40;;;;;;;;;;;;;;;21.90;18.60;96169.81;5017436;28;20350;-64
2022/05/07 10:36:08;;;;;;;;;;;;;;;22.02;19.08;96174.44;5017600;28;20016;-62
2022/05/07 10:38:35;;;;;;;;;;;;;;;21.84;18.89;96170.78;5017136;28;19951;-63
2022/05/07 10:41:09;;;;;;;;;;;;;;;20.97;19.56;96167.66;5016478;28;19970;-64
2022/05/07 10:43:36;;;;;;;;;;;;;;;21.85;18.76;96168.88;5016033;28;20079;-63
2022/05/07 10:46:05;;;;;;;;;;;;;;;22.44;17.89;96172.56;5017796;28;19950;-63
2022/05/07 10:48:41;;;;;;;;;;;;;;;22.73;18.40;96161.72;5016763;28;19965;-64
2022/05/07 10:51:06;;;;;;;;;;;;;;;22.33;19.69;96166.91;5016559;28;19938;-62
2022/05/07 10:53:38;;;;;;;;;;;;;;;22.52;19.58;96166.75;5015641;28;20266;-62
2022/05/07 10:56:03;;;;;;;;;;;;;;;23.24;19.09;96159.09;5006034;28;19954;-64
2022/05/07 10:58:29;;;;;;;;;;;;;;;23.41;18.09;96164.53;5005496;28;19925;-64
2022/05/07 11:00:56;;;;;;;;;;;;;;;23.97;17.69;96160.19;4997619;28;20113;-63
2022/05/07 11:03:24;;;;;;;;;;;;;;;25.02;16.54;96157.53;5005487;28;20236;-64
2022/05/07 11:05:49;;;;;;;;;;;;;;;25.06;16.91;96155.97;5001504;28;19994;-63
2022/05/07 11:08:14;;;;;;;;;;;;;;;25.21;16.94;96155.25;5006197;28;20009;-62
2022/05/07 11:10:40;;;;;;;;;;;;;;;25.91;16.50;96159.03;5004814;28;20232;-62
2022/05/07 11:13:08;;;;;;;;;;;;;;;26.44;17.06;96152.69;4999530;28;19975;-63
2022/05/07 11:15:34;;;;;;;;;;;;;;;26.95;15.51;96161.31;4997684;28;19946;-64
2022/05/07 11:17:59;;;;;;;;;;;;;;;27.06;15.14;96151.22;5015195;28;20229;-62
2022/05/07 11:20:28;;;;;;;;;;;;;;;27.10;14.95;96155.88;4999481;28;20036;-62
2022/05/07 11:23:03;;;;;;;;;;;;;;;27.19;15.04;96147.94;5008009;28;20432;-63
2022/05/07 11:25:28;;;;;;;;;;;;;;;27.38;14.85;96150.13;5003473;28;19929;-64
2022/05/07 11:27:55;;;;;;;;;;;;;;;27.34;14.96;96141.66;5006903;28;19939;-63
2022/05/07 11:30:21;;;;;;;;;;;;;;;27.65;14.73;96135.34;5015011;28;19978;-64
2022/05/07 11:32:46;;;;;;;;;;;;;;;27.37;14.89;96132.91;5016508;28;19933;-63
2022/05/07 11:35:11;;;;;;;;;;;;;;;27.15;14.85;96143.31;5016381;28;20229;-63
2022/05/07 11:37:37;;;;;;;;;;;;;;;27.81;14.10;96138.88;5014370;28;20229;-63
2022/05/07 11:40:03;;;;;;;;;;;;;;;27.94;14.18;96134.72;5006232;28;20437;-63
2022/05/07 11:42:29;;;;;;;;;;;;;;;28.07;13.96;96135.25;5016742;28;20340;-63
2022/05/07 11:47:38;;;;;;;;;;;;;;;28.49;13.98;96128.50;5015241;28;19991;-64
2022/05/07 11:50:06;;;;;;;;;;;;;;;28.66;13.85;96132.81;5008220;28;19969;-64
2022/05/07 11:52:31;;;;;;;;;;;;;;;28.51;13.80;96134.50;5010746;28;19962;-63
2022/05/07 11:54:56;;;;;;;;;;;;;;;28.01;13.76;96121.56;5016505;28;19926;-62
2022/05/07 11:57:26;;;;;;;;;;;;;;;28.07;14.57;96114.16;5014686;28;20016;-63
2022/05/07 11:59:51;;;;;;;;;;;;;;;27.82;14.91;96118.63;5014916;28;20361;-64
2022/05/07 12:02:16;;;;;;;;;;;;;;;27.89;14.54;96119.16;5016054;28;19989;-62
2022/05/07 12:04:42;;;;;;;;;;;;;;;27.41;16.47;96116.78;5015978;28;20437;-63
2022/05/07 12:07:10;;;;;;;;;;;;;;;26.21;16.12;96116.59;5016249;28;20113;-63
2022/05/07 12:09:35;;;;;;;;;;;;;;;26.80;15.66;96115.69;5008846;28;20744;-63
2022/05/07 12:12:00;;;;;;;;;;;;;;;26.99;14.67;96107.78;5003551;28;20199;-64
2022/05/07 12:14:26;;;;;;;;;;;;;;;26.79;14.33;96109.41;5002794;28;20401;-63
2022/05/07 12:19:35;;;;;;;;;;;;;;;26.11;14.94;96108.41;5003007;28;19952;-63
2022/05/07 12:30:15;;;;;;;;;;;;;;;24.30;16.94;96104.00;4997413;28;20332;-63
2022/05/07 12:32:43;;;;;;;;;;;;;;;24.13;16.13;96095.13;5013483;28;20590;-63
2022/05/07 12:35:08;;;;;;;;;;;;;;;24.78;15.90;96097.97;5007991;28;20381;-63
2022/05/07 12:37:34;;;;;;;;;;;;;;;24.00;17.45;96088.97;5003088;28;19962;-62
2022/05/07 12:39:59;;;;;;;;;;;;;;;23.14;18.40;96094.59;5003141;28;20195;-64
2022/05/07 12:42:24;;;;;;;;;;;;;;;23.75;16.87;96087.59;5000112;28;20389;-64
2022/05/07 12:44:49;;;;;;;;;;;;;;;24.37;15.91;96084.78;5002111;28;19986;-64
2022/05/07 12:47:17;;;;;;;;;;;;;;;24.93;16.55;96078.25;5014950;28;19964;-63
2022/05/07 12:49:42;;;;;;;;;;;;;;;24.21;16.08;96081.06;5012909;28;20163;-63
2022/05/07 12:52:08;;;;;;;;;;;;;;;24.45;17.75;96076.16;5001961;28;19926;-62
2022/05/07 12:54:33;;;;;;;;;;;;;;;25.39;17.02;96074.19;5006189;28;19932;-63
2022/05/07 12:56:58;;;;;;;;;;;;;;;25.90;15.96;96080.22;5018567;28;20006;-63
2022/05/07 12:59:24;;;;;;;;;;;;;;;25.91;15.14;96074.50;5011201;28;19925;-64
2022/05/07 13:01:49;;;;;;;;;;;;;;;25.18;15.40;96079.50;5019199;28;19944;-63
2022/05/07 13:04:14;;;;;;;;;;;;;;;23.91;17.21;96075.03;5016340;28;19968;-63
2022/05/07 13:06:39;;;;;;;;;;;;;;;24.31;16.14;96072.19;5010650;28;20583;-63
2022/05/07 13:09:05;;;;;;;;;;;;;;;22.67;17.54;96073.97;5016931;28;20482;-62
2022/05/07 13:11:30;;;;;;;;;;;;;;;23.79;16.39;96068.88;5011494;28;20236;-63
2022/05/07 13:13:55;;;;;;;;;;;;;;;26.08;14.40;96068.84;5011903;28;19960;-62
2022/05/07 13:16:20;;;;;;;;;;;;;;;25.86;14.92;96069.00;5016639;28;19932;-63
2022/05/07 13:18:46;;;;;;;;;;;;;;;25.18;15.76;96059.63;5019378;28;20410;-63
2022/05/07 13:21:11;;;;;;;;;;;;;;;25.63;15.72;96060.19;5017898;28;20245;-63
2022/05/07 13:23:36;;;;;;;;;;;;;;;26.07;15.55;96055.50;5019022;28;19928;-63
2022/05/07 13:26:02;;;;;;;;;;;;;;;25.80;15.77;96057.25;5019014;28;20422;-62